Accueil
METAR-TAF:

METAR-TAF

Aéroports :

Aéroport de Bathurst

Bathurst, Nouveau-Brunswick, Canada

latitude: 47-38N, longitude: 065-45W, altitude: 59 m

Observation

Le bulletin a été fait il y a 44 minutes, à 02:00 UTC
Vent 2 kt de direction variable
Température -4°C
Humidité 54%
Pression 1026 hPa
Visibilité: 14.5 km
Ciel couvert à une hauteur de 7500 ft

METAR: CZBF 120200Z AUTO VRB02KT 9SM OVC075 M04/M12 A3031 RMK SLP269

Heure: 22:44 (02:44 UTC)

Prévision

Le bulletin a été fait il y a 1 heure et 2 minutes, à 01:42 UTC
Prévision valable du 12 à 02 UTC au 12 à 04 UTC
Vent 5 kt de ouest/nord-ouest
Visibilité: 10 km
Ciel couvert à une hauteur de 9000 ft
A partir de 12 à 0300 UTC
Vent 5 kt de ouest/nord-ouest
Visibilité: 10 km
Ciel couvert à une hauteur de 4000 ft
neige faible

TAF: CZBF 120142Z 1202/1204 30005KT P6SM OVC090 FM120300 30005KT P6SM -SN OVC040 RMK FCST BASED ON AUTO OBS. NXT FCST WILL BE ISSUED AT 120945Z

Observations et prévisions météorologiques de plus de 4000 aéroports (messages METAR et TAF).

Les stations disponibles sont représentées par des disques jaunes et rouges sur la carte.

Passer la souris dessus pour voir le nom de la station.

Cliquer dessus pour voir les observations et prévisions météorologiques.

Pour changer de carte: cliquez sur les boutons verts avec une croix noire pour zoomer, sur le bouton vert avec un tiret pour effectuer un zoom arrière, ou sur les flèches vertes pour les cartes adjacentes.


METAR-TAF: